aviador You're here:

HESH Decoded Metar

SHARM EL SHEIKHI in EGYPT
Report Time2017-12-18 08:00:00
UTC Time2017-12-18 08:57:57
Flight Rules vfr VFR
Wind010° at 11 kt
W.Decomp.*RWY 04: 9.2 kt HW 6 kt LCW
W.Rank010° ranks 2
Current wind is below 010° avg. (12.3)
Visibility9999 m
Phenomena:N/A
Clouds:N/A
Expected CloudBase > 7,600 ft AGL from Temp-Dew spread
CeilingNone
Temp25°C (ISA +10)
Dew Point06°C (30% RH)
AAT20.2°C
QNH1020 hPa
Density Alt1,257 ft
Elevation164 ft
Report Wrong Elevation
Raw Report
HESH 180800Z 01011KT CAVOK 25/06 Q1020 NOSIG=

Extra information for HESH:More info

Metar Taf Metar & Taf Last 4 Metars F.Rules Stats Wind Profile Meteogram Temp Stats Airport Information Weather charts Add Link Nearby VenuesMetar ALERT Operation Metar Decoded Social comments